sensor_id;sensor_type;location;lat;lon;timestamp;pressure;altitude;pressure_sealevel;temperature;humidity
77062;BME280;65989;51.686;5.138;2023-03-01T00:01:58;103278.47;;;-2.55;71.09
77062;BME280;65989;51.686;5.138;2023-03-01T00:04:23;103282.00;;;-2.56;71.27
77062;BME280;65989;51.686;5.138;2023-03-01T00:06:49;103278.69;;;-2.58;71.20
77062;BME280;65989;51.686;5.138;2023-03-01T00:09:15;103283.78;;;-2.56;71.45
77062;BME280;65989;51.686;5.138;2023-03-01T00:11:40;103282.63;;;-2.52;71.39
77062;BME280;65989;51.686;5.138;2023-03-01T00:14:06;103276.50;;;-2.51;71.65
77062;BME280;65989;51.686;5.138;2023-03-01T00:16:34;103274.72;;;-2.50;71.56
77062;BME280;65989;51.686;5.138;2023-03-01T00:19:00;103275.78;;;-2.53;71.52
77062;BME280;65989;51.686;5.138;2023-03-01T00:21:26;103286.78;;;-2.49;71.48
77062;BME280;65989;51.686;5.138;2023-03-01T00:23:52;103282.63;;;-2.52;71.92
77062;BME280;65989;51.686;5.138;2023-03-01T00:26:20;103282.53;;;-2.50;71.81
77062;BME280;65989;51.686;5.138;2023-03-01T00:28:46;103279.31;;;-2.54;71.88
77062;BME280;65989;51.686;5.138;2023-03-01T00:31:14;103273.41;;;-2.56;71.76
77062;BME280;65989;51.686;5.138;2023-03-01T00:33:41;103277.75;;;-2.57;71.74
77062;BME280;65989;51.686;5.138;2023-03-01T00:36:07;103273.69;;;-2.61;72.25
77062;BME280;65989;51.686;5.138;2023-03-01T00:38:37;103283.88;;;-2.58;72.07
77062;BME280;65989;51.686;5.138;2023-03-01T00:41:07;103285.84;;;-2.61;72.29
77062;BME280;65989;51.686;5.138;2023-03-01T00:43:33;103286.88;;;-2.64;72.02
77062;BME280;65989;51.686;5.138;2023-03-01T00:46:10;103292.38;;;-2.68;72.45
77062;BME280;65989;51.686;5.138;2023-03-01T00:48:36;103298.63;;;-2.71;72.22
77062;BME280;65989;51.686;5.138;2023-03-01T00:51:21;103282.63;;;-2.78;72.39
77062;BME280;65989;51.686;5.138;2023-03-01T00:53:50;103277.75;;;-2.82;72.51
77062;BME280;65989;51.686;5.138;2023-03-01T00:56:16;103282.22;;;-2.85;72.67
77062;BME280;65989;51.686;5.138;2023-03-01T00:58:42;103274.63;;;-2.88;72.55
77062;BME280;65989;51.686;5.138;2023-03-01T01:01:15;103266.97;;;-2.89;72.91
77062;BME280;65989;51.686;5.138;2023-03-01T01:03:52;103267.38;;;-2.95;72.63
77062;BME280;65989;51.686;5.138;2023-03-01T01:06:32;103268.31;;;-2.96;72.73
77062;BME280;65989;51.686;5.138;2023-03-01T01:08:58;103272.16;;;-3.02;73.15
77062;BME280;65989;51.686;5.138;2023-03-01T01:11:26;103268.09;;;-3.06;72.91
77062;BME280;65989;51.686;5.138;2023-03-01T01:13:51;103247.75;;;-3.12;73.24
77062;BME280;65989;51.686;5.138;2023-03-01T01:16:18;103260.78;;;-3.14;73.35
77062;BME280;65989;51.686;5.138;2023-03-01T01:18:44;103254.38;;;-3.21;73.44
77062;BME280;65989;51.686;5.138;2023-03-01T01:21:16;103243.78;;;-3.31;73.28
77062;BME280;65989;51.686;5.138;2023-03-01T01:23:43;103243.78;;;-3.31;73.49
77062;BME280;65989;51.686;5.138;2023-03-01T01:26:11;103240.47;;;-3.33;73.58
77062;BME280;65989;51.686;5.138;2023-03-01T01:28:37;103233.50;;;-3.33;73.56
77062;BME280;65989;51.686;5.138;2023-03-01T01:31:04;103237.94;;;-3.35;73.86
77062;BME280;65989;51.686;5.138;2023-03-01T01:33:30;103240.66;;;-3.36;73.77
77062;BME280;65989;51.686;5.138;2023-03-01T01:35:55;103228.72;;;-3.39;74.08
77062;BME280;65989;51.686;5.138;2023-03-01T01:38:21;103232.22;;;-3.40;73.87
77062;BME280;65989;51.686;5.138;2023-03-01T01:40:47;103225.50;;;-3.42;74.09
77062;BME280;65989;51.686;5.138;2023-03-01T01:43:26;103223.00;;;-3.44;73.89
77062;BME280;65989;51.686;5.138;2023-03-01T01:46:01;103219.66;;;-3.46;74.06
77062;BME280;65989;51.686;5.138;2023-03-01T01:48:34;103219.78;;;-3.48;74.42
77062;BME280;65989;51.686;5.138;2023-03-01T01:51:07;103213.88;;;-3.50;74.11
77062;BME280;65989;51.686;5.138;2023-03-01T01:53:34;103206.22;;;-3.51;74.52
77062;BME280;65989;51.686;5.138;2023-03-01T01:56:01;103200.19;;;-3.52;74.60
77062;BME280;65989;51.686;5.138;2023-03-01T01:58:29;103205.28;;;-3.50;74.66
77062;BME280;65989;51.686;5.138;2023-03-01T02:00:55;103208.59;;;-3.48;74.77
77062;BME280;65989;51.686;5.138;2023-03-01T02:03:27;103201.75;;;-3.49;74.64
77062;BME280;65989;51.686;5.138;2023-03-01T02:08:25;103197.91;;;-3.43;74.66
77062;BME280;65989;51.686;5.138;2023-03-01T02:10:51;103191.06;;;-3.45;74.58
77062;BME280;65989;51.686;5.138;2023-03-01T02:13:18;103196.34;;;-3.46;74.71
77062;BME280;65989;51.686;5.138;2023-03-01T02:15:43;103182.44;;;-3.45;74.93
77062;BME280;65989;51.686;5.138;2023-03-01T02:18:11;103198.00;;;-3.45;74.72
77062;BME280;65989;51.686;5.138;2023-03-01T02:23:22;103183.59;;;-3.49;75.20
77062;BME280;65989;51.686;5.138;2023-03-01T02:25:55;103179.97;;;-3.47;74.98
77062;BME280;65989;51.686;5.138;2023-03-01T02:28:31;103188.47;;;-3.45;75.29
77062;BME280;65989;51.686;5.138;2023-03-01T02:30:56;103193.47;;;-3.41;75.18
77062;BME280;65989;51.686;5.138;2023-03-01T02:33:41;103199.38;;;-3.39;75.29
77062;BME280;65989;51.686;5.138;2023-03-01T02:36:14;103194.19;;;-3.39;75.33
77062;BME280;65989;51.686;5.138;2023-03-01T02:38:41;103189.94;;;-3.40;75.13
77062;BME280;65989;51.686;5.138;2023-03-01T02:41:08;103193.16;;;-3.37;75.46
77062;BME280;65989;51.686;5.138;2023-03-01T02:43:35;103190.56;;;-3.37;75.31
77062;BME280;65989;51.686;5.138;2023-03-01T02:46:14;103193.06;;;-3.35;75.67
77062;BME280;65989;51.686;5.138;2023-03-01T02:48:44;103195.00;;;-3.39;75.41
77062;BME280;65989;51.686;5.138;2023-03-01T02:51:21;103195.66;;;-3.35;75.64
77062;BME280;65989;51.686;5.138;2023-03-01T02:56:31;103193.47;;;-3.28;75.75
77062;BME280;65989;51.686;5.138;2023-03-01T02:58:57;103186.31;;;-3.25;75.37
77062;BME280;65989;51.686;5.138;2023-03-01T03:01:27;103199.00;;;-3.20;75.67
77062;BME280;65989;51.686;5.138;2023-03-01T03:04:08;103191.28;;;-3.22;75.66
77062;BME280;65989;51.686;5.138;2023-03-01T03:06:35;103195.75;;;-3.24;75.92
77062;BME280;65989;51.686;5.138;2023-03-01T03:09:01;103187.34;;;-3.27;75.64
77062;BME280;65989;51.686;5.138;2023-03-01T03:11:26;103183.31;;;-3.32;75.57
77062;BME280;65989;51.686;5.138;2023-03-01T03:13:52;103179.06;;;-3.33;75.45
77062;BME280;65989;51.686;5.138;2023-03-01T03:16:18;103186.94;;;-3.34;75.62
77062;BME280;65989;51.686;5.138;2023-03-01T03:18:44;103172.53;;;-3.38;75.58
77062;BME280;65989;51.686;5.138;2023-03-01T03:21:11;103182.16;;;-3.40;75.95
77062;BME280;65989;51.686;5.138;2023-03-01T03:23:37;103182.44;;;-3.45;75.92
77062;BME280;65989;51.686;5.138;2023-03-01T03:26:03;103180.09;;;-3.48;76.02
77062;BME280;65989;51.686;5.138;2023-03-01T03:28:30;103180.28;;;-3.51;76.28
77062;BME280;65989;51.686;5.138;2023-03-01T03:30:56;103171.78;;;-3.53;76.44
77062;BME280;65989;51.686;5.138;2023-03-01T03:33:21;103164.19;;;-3.56;76.16
77062;BME280;65989;51.686;5.138;2023-03-01T03:35:48;103169.28;;;-3.55;76.45
77062;BME280;65989;51.686;5.138;2023-03-01T03:38:16;103160.88;;;-3.58;76.47
77062;BME280;65989;51.686;5.138;2023-03-01T03:40:59;103174.56;;;-3.56;76.14
77062;BME280;65989;51.686;5.138;2023-03-01T03:43:29;103169.59;;;-3.60;76.29
77062;BME280;65989;51.686;5.138;2023-03-01T03:45:55;103163.56;;;-3.60;76.57
77062;BME280;65989;51.686;5.138;2023-03-01T03:48:22;103169.59;;;-3.60;76.80
77062;BME280;65989;51.686;5.138;2023-03-01T03:50:55;103165.34;;;-3.61;76.56
77062;BME280;65989;51.686;5.138;2023-03-01T03:53:23;103164.50;;;-3.61;76.49
77062;BME280;65989;51.686;5.138;2023-03-01T03:55:48;103164.72;;;-3.64;76.54
77062;BME280;65989;51.686;5.138;2023-03-01T03:58:17;103162.13;;;-3.64;76.64
77062;BME280;65989;51.686;5.138;2023-03-01T04:00:45;103162.81;;;-3.62;76.87
77062;BME280;65989;51.686;5.138;2023-03-01T04:03:12;103155.16;;;-3.64;76.76
77062;BME280;65989;51.686;5.138;2023-03-01T04:05:39;103157.97;;;-3.67;77.04
77062;BME280;65989;51.686;5.138;2023-03-01T04:08:06;103157.03;;;-3.66;77.11
77062;BME280;65989;51.686;5.138;2023-03-01T04:10:42;103149.38;;;-3.67;77.24
77062;BME280;65989;51.686;5.138;2023-03-01T04:13:15;103157.22;;;-3.69;77.03
77062;BME280;65989;51.686;5.138;2023-03-01T04:15:41;103149.66;;;-3.72;76.87
77062;BME280;65989;51.686;5.138;2023-03-01T04:18:08;103145.59;;;-3.76;77.02
77062;BME280;65989;51.686;5.138;2023-03-01T04:20:37;103138.94;;;-3.80;77.35
77062;BME280;65989;51.686;5.138;2023-03-01T04:23:05;103145.72;;;-3.78;77.23
77062;BME280;65989;51.686;5.138;2023-03-01T04:28:18;103146.72;;;-3.80;76.92
77062;BME280;65989;51.686;5.138;2023-03-01T04:30:44;103150.47;;;-3.84;77.34
77062;BME280;65989;51.686;5.138;2023-03-01T04:33:10;103151.59;;;-3.88;77.08
77062;BME280;65989;51.686;5.138;2023-03-01T04:35:36;103149.09;;;-3.90;77.11
77062;BME280;65989;51.686;5.138;2023-03-01T04:38:02;103155.13;;;-3.90;77.62
77062;BME280;65989;51.686;5.138;2023-03-01T04:40:28;103148.47;;;-3.94;77.12
77062;BME280;65989;51.686;5.138;2023-03-01T04:42:53;103143.59;;;-3.98;77.18
77062;BME280;65989;51.686;5.138;2023-03-01T04:45:19;103146.47;;;-4.03;77.34
77062;BME280;65989;51.686;5.138;2023-03-01T04:47:45;103147.41;;;-4.04;77.59
77062;BME280;65989;51.686;5.138;2023-03-01T04:50:14;103144.38;;;-4.11;77.48
77062;BME280;65989;51.686;5.138;2023-03-01T04:52:39;103141.06;;;-4.13;77.48
77062;BME280;65989;51.686;5.138;2023-03-01T04:55:05;103134.94;;;-4.12;77.47
77062;BME280;65989;51.686;5.138;2023-03-01T04:57:31;103141.78;;;-4.11;77.70
77062;BME280;65989;51.686;5.138;2023-03-01T04:59:57;103135.03;;;-4.13;77.71
77062;BME280;65989;51.686;5.138;2023-03-01T05:02:22;103128.09;;;-4.13;77.63
77062;BME280;65989;51.686;5.138;2023-03-01T05:04:48;103120.22;;;-4.11;77.84
77062;BME280;65989;51.686;5.138;2023-03-01T05:07:13;103115.16;;;-4.13;77.63
77062;BME280;65989;51.686;5.138;2023-03-01T05:09:47;103117.44;;;-4.08;77.87
77062;BME280;65989;51.686;5.138;2023-03-01T05:12:13;103107.28;;;-4.11;77.93
77062;BME280;65989;51.686;5.138;2023-03-01T05:14:39;103118.38;;;-4.09;77.87
77062;BME280;65989;51.686;5.138;2023-03-01T05:17:05;103108.19;;;-4.12;78.03
77062;BME280;65989;51.686;5.138;2023-03-01T05:19:31;103098.69;;;-4.12;77.96
77062;BME280;65989;51.686;5.138;2023-03-01T05:21:58;103097.56;;;-4.08;78.28
77062;BME280;65989;51.686;5.138;2023-03-01T05:24:26;103092.38;;;-4.08;78.33
77062;BME280;65989;51.686;5.138;2023-03-01T05:26:52;103090.00;;;-4.11;78.01
77062;BME280;65989;51.686;5.138;2023-03-01T05:29:25;103090.00;;;-4.11;78.17
77062;BME280;65989;51.686;5.138;2023-03-01T05:31:56;103084.81;;;-4.11;78.21
77062;BME280;65989;51.686;5.138;2023-03-01T05:34:33;103071.03;;;-4.11;78.17
77062;BME280;65989;51.686;5.138;2023-03-01T05:36:59;103075.59;;;-4.15;78.29
77062;BME280;65989;51.686;5.138;2023-03-01T05:39:26;103075.38;;;-4.12;78.13
77062;BME280;65989;51.686;5.138;2023-03-01T05:41:58;103077.25;;;-4.14;78.26
77062;BME280;65989;51.686;5.138;2023-03-01T05:44:24;103074.78;;;-4.15;78.47
77062;BME280;65989;51.686;5.138;2023-03-01T05:46:51;103064.50;;;-4.17;78.26
77062;BME280;65989;51.686;5.138;2023-03-01T05:49:17;103066.16;;;-4.16;78.24
77062;BME280;65989;51.686;5.138;2023-03-01T05:51:43;103058.31;;;-4.14;78.29
77062;BME280;65989;51.686;5.138;2023-03-01T05:54:12;103062.63;;;-4.15;78.24
77062;BME280;65989;51.686;5.138;2023-03-01T05:56:37;103054.13;;;-4.17;78.27
77062;BME280;65989;51.686;5.138;2023-03-01T05:59:04;103060.25;;;-4.18;78.45
77062;BME280;65989;51.686;5.138;2023-03-01T06:01:33;103065.75;;;-4.23;78.38
77062;BME280;65989;51.686;5.138;2023-03-01T06:03:59;103060.75;;;-4.26;78.16
77062;BME280;65989;51.686;5.138;2023-03-01T06:06:25;103062.91;;;-4.32;78.02
77062;BME280;65989;51.686;5.138;2023-03-01T06:08:51;103065.50;;;-4.32;78.54
77062;BME280;65989;51.686;5.138;2023-03-01T06:11:17;103075.13;;;-4.35;78.35
77062;BME280;65989;51.686;5.138;2023-03-01T06:13:43;103074.19;;;-4.33;78.31
77062;BME280;65989;51.686;5.138;2023-03-01T06:16:10;103075.94;;;-4.34;78.37
77062;BME280;65989;51.686;5.138;2023-03-01T06:18:36;103082.25;;;-4.38;78.47
77062;BME280;65989;51.686;5.138;2023-03-01T06:21:02;103075.50;;;-4.41;78.38
77062;BME280;65989;51.686;5.138;2023-03-01T06:23:27;103081.41;;;-4.39;78.47
77062;BME280;65989;51.686;5.138;2023-03-01T06:25:53;103075.84;;;-4.32;78.85
77062;BME280;65989;51.686;5.138;2023-03-01T06:28:18;103077.84;;;-4.23;78.80
77062;BME280;65989;51.686;5.138;2023-03-01T06:30:44;103078.38;;;-4.18;78.78
77062;BME280;65989;51.686;5.138;2023-03-01T06:33:09;103078.59;;;-4.08;78.86
77062;BME280;65989;51.686;5.138;2023-03-01T06:35:35;103082.56;;;-4.02;78.63
77062;BME280;65989;51.686;5.138;2023-03-01T06:38:02;103089.09;;;-3.97;78.71
77062;BME280;65989;51.686;5.138;2023-03-01T06:40:28;103078.63;;;-3.95;78.59
77062;BME280;65989;51.686;5.138;2023-03-01T06:42:54;103081.94;;;-3.93;78.35
77062;BME280;65989;51.686;5.138;2023-03-01T06:45:20;103076.75;;;-3.93;78.40
77062;BME280;65989;51.686;5.138;2023-03-01T06:47:47;103076.69;;;-3.92;78.80
77062;BME280;65989;51.686;5.138;2023-03-01T06:50:13;103069.84;;;-3.93;78.51
77062;BME280;65989;51.686;5.138;2023-03-01T06:52:38;103071.38;;;-3.90;78.75
77062;BME280;65989;51.686;5.138;2023-03-01T06:55:05;103071.91;;;-3.85;78.47
77062;BME280;65989;51.686;5.138;2023-03-01T06:57:30;103078.66;;;-3.82;78.58
77062;BME280;65989;51.686;5.138;2023-03-01T06:59:56;103087.97;;;-3.80;78.45
77062;BME280;65989;51.686;5.138;2023-03-01T07:02:21;103082.91;;;-3.81;78.33
77062;BME280;65989;51.686;5.138;2023-03-01T07:04:49;103086.00;;;-3.76;78.20
77062;BME280;65989;51.686;5.138;2023-03-01T07:07:15;103085.72;;;-3.71;78.24
77062;BME280;65989;51.686;5.138;2023-03-01T07:09:40;103085.53;;;-3.68;78.25
77062;BME280;65989;51.686;5.138;2023-03-01T07:12:06;103076.50;;;-3.63;78.14
77062;BME280;65989;51.686;5.138;2023-03-01T07:14:32;103082.81;;;-3.54;78.62
77062;BME280;65989;51.686;5.138;2023-03-01T07:16:57;103085.41;;;-3.54;78.75
77062;BME280;65989;51.686;5.138;2023-03-01T07:19:22;103082.81;;;-3.54;78.25
77062;BME280;65989;51.686;5.138;2023-03-01T07:21:48;103083.13;;;-3.46;78.48
77062;BME280;65989;51.686;5.138;2023-03-01T07:24:13;103079.50;;;-3.43;78.32
77062;BME280;65989;51.686;5.138;2023-03-01T07:26:39;103076.41;;;-3.35;78.36
77062;BME280;65989;51.686;5.138;2023-03-01T07:29:06;103066.22;;;-3.25;78.34
77062;BME280;65989;51.686;5.138;2023-03-01T07:31:32;103063.09;;;-3.18;78.69
77062;BME280;65989;51.686;5.138;2023-03-01T07:33:58;103069.09;;;-3.04;78.40
77062;BME280;65989;51.686;5.138;2023-03-01T07:36:24;103068.44;;;-2.95;78.10
77062;BME280;65989;51.686;5.138;2023-03-01T07:38:50;103066.75;;;-2.83;77.86
77062;BME280;65989;51.686;5.138;2023-03-01T07:41:16;103069.53;;;-2.73;77.95
77062;BME280;65989;51.686;5.138;2023-03-01T07:43:41;103076.41;;;-2.61;77.61
77062;BME280;65989;51.686;5.138;2023-03-01T07:46:06;103091.13;;;-2.48;77.66
77062;BME280;65989;51.686;5.138;2023-03-01T07:48:33;103085.50;;;-2.42;77.61
77062;BME280;65989;51.686;5.138;2023-03-01T07:50:59;103088.25;;;-2.32;77.42
77062;BME280;65989;51.686;5.138;2023-03-01T07:53:25;103088.63;;;-2.26;77.22
77062;BME280;65989;51.686;5.138;2023-03-01T07:58:28;103096.91;;;-2.20;77.42
77062;BME280;65989;51.686;5.138;2023-03-01T08:00:53;103098.63;;;-2.08;77.06
77062;BME280;65989;51.686;5.138;2023-03-01T08:03:18;103092.75;;;-1.99;76.89
77062;BME280;65989;51.686;5.138;2023-03-01T08:05:44;103099.97;;;-1.91;76.86
77062;BME280;65989;51.686;5.138;2023-03-01T08:08:09;103093.38;;;-1.84;76.59
77062;BME280;65989;51.686;5.138;2023-03-01T08:10:36;103096.84;;;-1.72;76.68
77062;BME280;65989;51.686;5.138;2023-03-01T08:13:01;103098.38;;;-1.69;76.17
77062;BME280;65989;51.686;5.138;2023-03-01T08:15:26;103095.19;;;-1.61;76.30
77062;BME280;65989;51.686;5.138;2023-03-01T08:17:52;103093.06;;;-1.56;76.07
77062;BME280;65989;51.686;5.138;2023-03-01T08:20:17;103094.25;;;-1.49;76.22
77062;BME280;65989;51.686;5.138;2023-03-01T08:22:43;103099.72;;;-1.41;76.09
77062;BME280;65989;51.686;5.138;2023-03-01T08:25:08;103092.16;;;-1.32;76.01
77062;BME280;65989;51.686;5.138;2023-03-01T08:27:34;103088.13;;;-1.25;75.96
77062;BME280;65989;51.686;5.138;2023-03-01T08:29:59;103091.69;;;-1.15;75.76
77062;BME280;65989;51.686;5.138;2023-03-01T08:32:24;103085.16;;;-1.09;75.61
77062;BME280;65989;51.686;5.138;2023-03-01T08:34:50;103081.97;;;-1.01;75.59
77062;BME280;65989;51.686;5.138;2023-03-01T08:37:15;103089.19;;;-0.94;75.41
77062;BME280;65989;51.686;5.138;2023-03-01T08:39:40;103085.97;;;-0.86;75.04
77062;BME280;65989;51.686;5.138;2023-03-01T08:42:06;103085.50;;;-0.80;74.53
77062;BME280;65989;51.686;5.138;2023-03-01T08:44:31;103081.22;;;-0.69;74.36
77062;BME280;65989;51.686;5.138;2023-03-01T08:46:56;103080.47;;;-0.60;74.55
77062;BME280;65989;51.686;5.138;2023-03-01T08:49:24;103074.38;;;-0.49;74.35
77062;BME280;65989;51.686;5.138;2023-03-01T08:51:49;103069.03;;;-0.36;74.31
77062;BME280;65989;51.686;5.138;2023-03-01T08:54:17;103057.84;;;-0.27;73.66
77062;BME280;65989;51.686;5.138;2023-03-01T08:56:43;103062.16;;;-0.16;73.47
77062;BME280;65989;51.686;5.138;2023-03-01T08:59:10;103048.63;;;-0.10;72.98
77062;BME280;65989;51.686;5.138;2023-03-01T09:01:36;103054.75;;;0.01;73.16
77062;BME280;65989;51.686;5.138;2023-03-01T09:04:02;103051.63;;;0.07;72.30
77062;BME280;65989;51.686;5.138;2023-03-01T09:06:30;103044.97;;;0.14;72.24
77062;BME280;65989;51.686;5.138;2023-03-01T09:08:56;103043.72;;;0.18;72.08
77062;BME280;65989;51.686;5.138;2023-03-01T09:11:22;103040.59;;;0.24;71.45
77062;BME280;65989;51.686;5.138;2023-03-01T09:13:48;103046.84;;;0.33;70.97
77062;BME280;65989;51.686;5.138;2023-03-01T09:16:15;103035.06;;;0.39;70.94
77062;BME280;65989;51.686;5.138;2023-03-01T09:18:42;103034.53;;;0.45;70.22
77062;BME280;65989;51.686;5.138;2023-03-01T09:21:11;103026.06;;;0.53;70.42
77062;BME280;65989;51.686;5.138;2023-03-01T09:23:39;103033.22;;;0.61;69.86
77062;BME280;65989;51.686;5.138;2023-03-01T09:26:06;103021.44;;;0.66;69.71
77062;BME280;65989;51.686;5.138;2023-03-01T09:28:32;103018.59;;;0.79;69.25
77062;BME280;65989;51.686;5.138;2023-03-01T09:30:58;103010.50;;;0.82;68.90
77062;BME280;65989;51.686;5.138;2023-03-01T09:33:24;103014.50;;;0.96;68.37
77062;BME280;65989;51.686;5.138;2023-03-01T09:35:49;103004.19;;;1.04;67.54
77062;BME280;65989;51.686;5.138;2023-03-01T09:38:15;103007.50;;;1.07;67.41
77062;BME280;65989;51.686;5.138;2023-03-01T09:40:44;103002.84;;;1.10;66.93
77062;BME280;65989;51.686;5.138;2023-03-01T09:45:53;102997.34;;;1.33;66.15
77062;BME280;65989;51.686;5.138;2023-03-01T09:48:23;103008.50;;;1.35;66.23
77062;BME280;65989;51.686;5.138;2023-03-01T09:50:50;103005.34;;;1.41;65.34
77062;BME280;65989;51.686;5.138;2023-03-01T09:53:19;103003.41;;;1.43;65.06
77062;BME280;65989;51.686;5.138;2023-03-01T09:55:59;103000.66;;;1.45;65.12
77062;BME280;65989;51.686;5.138;2023-03-01T09:58:31;102987.16;;;1.49;64.49
77062;BME280;65989;51.686;5.138;2023-03-01T10:01:34;102988.69;;;1.52;64.50
77062;BME280;65989;51.686;5.138;2023-03-01T10:06:28;102994.31;;;1.67;63.34
77062;BME280;65989;51.686;5.138;2023-03-01T10:09:15;102985.34;;;1.70;62.56
77062;BME280;65989;51.686;5.138;2023-03-01T10:11:45;103001.59;;;1.73;62.39
77062;BME280;65989;51.686;5.138;2023-03-01T10:14:29;102991.38;;;1.80;61.88
77062;BME280;65989;51.686;5.138;2023-03-01T10:20:17;102998.13;;;1.92;61.62
77062;BME280;65989;51.686;5.138;2023-03-01T10:22:42;102996.03;;;1.96;60.88
77062;BME280;65989;51.686;5.138;2023-03-01T10:25:14;102993.41;;;1.96;60.42
77062;BME280;65989;51.686;5.138;2023-03-01T10:30:17;102978.81;;;2.03;60.49
77062;BME280;65989;51.686;5.138;2023-03-01T10:32:46;102982.78;;;2.07;60.49
77062;BME280;65989;51.686;5.138;2023-03-01T10:38:05;102971.88;;;2.12;60.62
77062;BME280;65989;51.686;5.138;2023-03-01T10:40:33;102977.97;;;2.13;60.73
77062;BME280;65989;51.686;5.138;2023-03-01T10:43:01;102962.22;;;2.22;59.73
77062;BME280;65989;51.686;5.138;2023-03-01T10:45:39;102963.03;;;2.23;59.72
77062;BME280;65989;51.686;5.138;2023-03-01T10:50:33;102949.53;;;2.28;59.15
77062;BME280;65989;51.686;5.138;2023-03-01T10:53:00;102948.66;;;2.37;59.22
77062;BME280;65989;51.686;5.138;2023-03-01T10:55:38;102944.78;;;2.41;59.52
77062;BME280;65989;51.686;5.138;2023-03-01T10:58:19;102940.75;;;2.47;59.31
77062;BME280;65989;51.686;5.138;2023-03-01T11:03:21;102929.00;;;2.51;58.87
77062;BME280;65989;51.686;5.138;2023-03-01T11:06:20;102934.78;;;2.54;59.12
77062;BME280;65989;51.686;5.138;2023-03-01T11:08:48;102928.28;;;2.59;58.36
77062;BME280;65989;51.686;5.138;2023-03-01T11:11:30;102944.38;;;2.64;58.58
77062;BME280;65989;51.686;5.138;2023-03-01T11:16:42;102929.03;;;2.69;57.93
77062;BME280;65989;51.686;5.138;2023-03-01T11:21:36;102914.28;;;2.68;57.58
77062;BME280;65989;51.686;5.138;2023-03-01T11:24:08;102912.13;;;2.81;57.67
77062;BME280;65989;51.686;5.138;2023-03-01T11:26:39;102908.38;;;2.84;57.19
77062;BME280;65989;51.686;5.138;2023-03-01T11:29:15;102901.16;;;2.78;57.60
77062;BME280;65989;51.686;5.138;2023-03-01T11:31:43;102917.47;;;2.90;57.38
77062;BME280;65989;51.686;5.138;2023-03-01T11:34:20;102901.44;;;2.93;57.34
77062;BME280;65989;51.686;5.138;2023-03-01T11:36:54;102912.94;;;3.00;56.15
77062;BME280;65989;51.686;5.138;2023-03-01T11:39:45;102904.75;;;2.95;56.68
77062;BME280;65989;51.686;5.138;2023-03-01T11:42:22;102921.13;;;2.97;56.81
77062;BME280;65989;51.686;5.138;2023-03-01T11:44:53;102911.97;;;3.01;55.66
77062;BME280;65989;51.686;5.138;2023-03-01T11:52:41;102910.31;;;3.18;55.50
77062;BME280;65989;51.686;5.138;2023-03-01T12:08:49;102902.59;;;3.35;54.38
77062;BME280;65989;51.686;5.138;2023-03-01T12:11:25;102901.59;;;3.36;54.19
77062;BME280;65989;51.686;5.138;2023-03-01T12:17:08;102900.69;;;3.45;54.81
77062;BME280;65989;51.686;5.138;2023-03-01T12:19:57;102892.34;;;3.50;55.16
77062;BME280;65989;51.686;5.138;2023-03-01T12:22:36;102881.09;;;3.57;54.44
77062;BME280;65989;51.686;5.138;2023-03-01T12:25:29;102885.22;;;3.60;54.45
77062;BME280;65989;51.686;5.138;2023-03-01T12:36:06;102852.81;;;3.69;54.04
77062;BME280;65989;51.686;5.138;2023-03-01T12:38:45;102862.53;;;3.77;53.62
77062;BME280;65989;51.686;5.138;2023-03-01T12:47:11;102851.50;;;3.73;54.27
77062;BME280;65989;51.686;5.138;2023-03-01T12:49:44;102859.72;;;3.79;54.32
77062;BME280;65989;51.686;5.138;2023-03-01T12:55:33;102846.50;;;3.88;53.91
77062;BME280;65989;51.686;5.138;2023-03-01T13:00:45;102834.53;;;3.86;53.90
77062;BME280;65989;51.686;5.138;2023-03-01T13:03:31;102821.88;;;3.81;54.18
77062;BME280;65989;51.686;5.138;2023-03-01T13:06:21;102823.72;;;3.89;54.43
77062;BME280;65989;51.686;5.138;2023-03-01T13:11:22;102813.56;;;4.02;53.61
77062;BME280;65989;51.686;5.138;2023-03-01T13:13:48;102805.22;;;3.99;53.13
77062;BME280;65989;51.686;5.138;2023-03-01T13:19:27;102793.88;;;3.98;53.55
77062;BME280;65989;51.686;5.138;2023-03-01T13:21:58;102792.59;;;4.02;52.60
77062;BME280;65989;51.686;5.138;2023-03-01T13:24:39;102798.69;;;4.03;53.26
77062;BME280;65989;51.686;5.138;2023-03-01T13:29:51;102775.72;;;4.05;53.34
77062;BME280;65989;51.686;5.138;2023-03-01T13:34:51;102778.38;;;4.13;53.11
77062;BME280;65989;51.686;5.138;2023-03-01T13:37:26;102784.25;;;4.15;53.26
77062;BME280;65989;51.686;5.138;2023-03-01T13:39:52;102781.16;;;4.20;52.76
77062;BME280;65989;51.686;5.138;2023-03-01T13:42:45;102778.56;;;4.28;52.80
77062;BME280;65989;51.686;5.138;2023-03-01T13:47:58;102775.59;;;4.40;51.74
77062;BME280;65989;51.686;5.138;2023-03-01T13:50:28;102765.75;;;4.42;51.54
77062;BME280;65989;51.686;5.138;2023-03-01T13:52:58;102769.88;;;4.44;51.28
77062;BME280;65989;51.686;5.138;2023-03-01T13:58:04;102759.38;;;4.44;51.10
77062;BME280;65989;51.686;5.138;2023-03-01T14:00:38;102757.56;;;4.53;51.34
77062;BME280;65989;51.686;5.138;2023-03-01T14:05:33;102757.22;;;4.56;50.49
77062;BME280;65989;51.686;5.138;2023-03-01T14:07:59;102732.63;;;4.57;50.14
77062;BME280;65989;51.686;5.138;2023-03-01T14:10:35;102728.34;;;4.56;50.34
77062;BME280;65989;51.686;5.138;2023-03-01T14:13:20;102728.16;;;4.58;50.04
77062;BME280;65989;51.686;5.138;2023-03-01T14:18:39;102718.66;;;4.48;50.32
77062;BME280;65989;51.686;5.138;2023-03-01T14:21:14;102721.13;;;4.50;50.75
77062;BME280;65989;51.686;5.138;2023-03-01T14:23:41;102711.44;;;4.51;49.76
77062;BME280;65989;51.686;5.138;2023-03-01T14:26:08;102713.06;;;4.60;48.92
77062;BME280;65989;51.686;5.138;2023-03-01T14:28:36;102713.88;;;4.69;48.71
77062;BME280;65989;51.686;5.138;2023-03-01T14:31:35;102698.13;;;4.69;49.44
77062;BME280;65989;51.686;5.138;2023-03-01T14:34:01;102693.38;;;4.64;49.09
77062;BME280;65989;51.686;5.138;2023-03-01T14:36:28;102695.00;;;4.65;48.98
77062;BME280;65989;51.686;5.138;2023-03-01T14:38:54;102702.72;;;4.67;49.18
77062;BME280;65989;51.686;5.138;2023-03-01T14:41:27;102696.66;;;4.66;48.86
77062;BME280;65989;51.686;5.138;2023-03-01T14:43:57;102679.78;;;4.60;48.97